createdAt,value
2019-04-27T00:02:48.073Z,5.55
2019-04-27T00:05:26.675Z,10.50
2019-04-27T00:08:39.157Z,6.08
2019-04-27T00:11:33.119Z,8.75
2019-04-27T00:16:55.842Z,5.33
2019-04-27T00:19:53.413Z,4.50
2019-04-27T00:22:38.264Z,6.05
2019-04-27T00:27:49.642Z,5.15
2019-04-27T00:33:01.214Z,4.60
2019-04-27T00:38:36.925Z,5.95
2019-04-27T00:41:19.014Z,4.85
2019-04-27T00:44:06.571Z,5.30
2019-04-27T00:46:49.242Z,5.50
2019-04-27T00:49:27.949Z,5.22
2019-04-27T00:57:18.307Z,5.65
2019-04-27T00:59:46.662Z,5.37
2019-04-27T01:04:57.765Z,4.20
2019-04-27T01:07:40.291Z,5.97
2019-04-27T01:10:16.370Z,3.90
2019-04-27T01:12:58.512Z,6.00
2019-04-27T01:15:35.065Z,4.80
2019-04-27T01:18:19.500Z,4.22
2019-04-27T01:20:55.353Z,7.83
2019-04-27T01:23:38.571Z,5.58
2019-04-27T01:26:33.659Z,4.25
2019-04-27T01:31:48.679Z,3.80
2019-04-27T01:34:24.465Z,4.45
2019-04-27T01:42:01.631Z,4.00
2019-04-27T01:44:37.182Z,5.08
2019-04-27T01:47:21.780Z,5.95
2019-04-27T01:49:58.515Z,3.85
2019-04-27T01:52:41.665Z,4.20
2019-04-27T01:55:18.855Z,4.78
2019-04-27T01:58:01.406Z,4.65
2019-04-27T02:01:02.813Z,3.87
2019-04-27T02:04:09.300Z,4.42
2019-04-27T02:06:48.704Z,4.12
2019-04-27T02:09:31.341Z,6.30
2019-04-27T02:12:09.357Z,5.08
2019-04-27T02:14:52.722Z,3.52
2019-04-27T02:17:21.080Z,4.28
2019-04-27T02:22:38.471Z,3.97
2019-04-27T02:25:06.154Z,3.85
2019-04-27T02:27:50.484Z,5.33
2019-04-27T02:30:52.122Z,4.55
2019-04-27T02:33:40.508Z,5.40
2019-04-27T02:36:14.580Z,5.17
2019-04-27T02:38:54.779Z,3.83
2019-04-27T02:41:44.155Z,3.58
2019-04-27T02:44:33.356Z,6.30
2019-04-27T02:47:15.673Z,5.10
2019-04-27T02:49:43.313Z,8.55
2019-04-27T02:52:50.439Z,6.65
2019-04-27T02:55:29.310Z,4.47
2019-04-27T02:58:13.075Z,4.00
2019-04-27T03:00:50.141Z,5.80
2019-04-27T03:03:32.496Z,6.05
2019-04-27T03:06:09.798Z,5.28
2019-04-27T03:08:54.499Z,6.12
2019-04-27T03:11:23.447Z,4.25
2019-04-27T03:14:36.611Z,5.33
2019-04-27T03:17:50.994Z,4.08
2019-04-27T03:20:42.255Z,4.35
2019-04-27T03:23:24.852Z,5.90
2019-04-27T03:26:00.376Z,4.00
2019-04-27T03:28:42.947Z,7.25
2019-04-27T03:31:21.387Z,4.00
2019-04-27T03:34:05.498Z,4.85
2019-04-27T03:36:41.848Z,10.08
2019-04-27T03:41:54.558Z,3.62
2019-04-27T03:44:32.093Z,4.25
2019-04-27T03:52:45.315Z,3.50
2019-04-27T03:55:25.463Z,3.98
2019-04-27T03:58:26.531Z,6.72
2019-04-27T04:01:02.272Z,8.93
2019-04-27T04:03:45.760Z,5.30
2019-04-27T04:06:14.364Z,5.30
2019-04-27T04:09:00.244Z,5.45
2019-04-27T04:11:56.463Z,4.25
2019-04-27T04:14:42.640Z,5.70
2019-04-27T04:17:20.350Z,3.83
2019-04-27T04:19:57.155Z,5.15
2019-04-27T04:22:32.370Z,4.12
2019-04-27T04:25:10.720Z,3.30
2019-04-27T04:27:52.884Z,4.65
2019-04-27T04:30:21.181Z,5.45
2019-04-27T04:33:03.129Z,4.33
2019-04-27T04:35:39.770Z,5.55
2019-04-27T04:38:23.467Z,4.85
2019-04-27T04:41:15.950Z,5.08
2019-04-27T04:44:05.246Z,6.78
2019-04-27T04:47:00.551Z,4.60
2019-04-27T04:52:11.863Z,4.20
2019-04-27T04:54:55.353Z,6.70
2019-04-27T04:57:23.047Z,5.40
2019-04-27T05:00:06.947Z,5.37
2019-04-27T05:02:43.223Z,7.12
2019-04-27T05:05:25.433Z,5.33
2019-04-27T05:08:02.153Z,3.37
2019-04-27T05:10:44.306Z,3.80
2019-04-27T05:13:20.587Z,5.65
2019-04-27T05:16:02.751Z,4.03
2019-04-27T05:18:32.300Z,4.62
2019-04-27T05:23:43.223Z,3.62
2019-04-27T05:26:25.412Z,4.00
2019-04-27T05:29:01.479Z,3.45
2019-04-27T05:31:43.858Z,3.50
2019-04-27T05:34:20.355Z,5.78
2019-04-27T05:37:08.943Z,7.17
2019-04-27T05:39:43.637Z,6.03
2019-04-27T05:44:54.673Z,4.47
2019-04-27T05:47:51.879Z,4.35
2019-04-27T05:50:36.470Z,4.87
2019-04-27T05:53:12.751Z,4.10
2019-04-27T05:55:41.352Z,4.67
2019-04-27T05:58:24.466Z,4.37
2019-04-27T06:01:12.994Z,6.40
2019-04-27T06:03:55.840Z,5.97
2019-04-27T06:06:31.915Z,3.80
2019-04-27T06:11:45.833Z,3.58
2019-04-27T06:14:29.375Z,4.40
2019-04-27T06:17:06.838Z,5.25
2019-04-27T06:24:52.293Z,4.83
2019-04-27T06:27:32.185Z,6.62
2019-04-27T06:30:19.253Z,7.00
2019-04-27T06:33:12.387Z,3.90
2019-04-27T06:35:49.526Z,6.58
2019-04-27T06:44:49.425Z,5.37
2019-04-27T06:47:29.750Z,5.75
2019-04-27T06:50:21.973Z,8.18
2019-04-27T06:52:59.060Z,6.65
2019-04-27T07:01:53.688Z,4.75
2019-04-27T07:05:49.279Z,6.10
2019-04-27T07:08:10.779Z,6.00
2019-04-27T07:10:49.123Z,4.20
2019-04-27T07:16:10.196Z,6.03
2019-04-27T07:18:52.829Z,5.72
2019-04-27T07:21:28.950Z,5.78
2019-04-27T07:24:11.823Z,4.53
2019-04-27T07:26:48.903Z,7.25
2019-04-27T07:29:32.022Z,5.20
2019-04-27T07:32:09.307Z,4.90
2019-04-27T07:34:55.221Z,6.53
2019-04-27T07:37:22.564Z,5.20
2019-04-27T07:40:06.374Z,8.10
2019-04-27T07:42:52.201Z,14.15
2019-04-27T07:45:43.011Z,8.65
2019-04-27T07:48:18.937Z,8.33
2019-04-27T07:53:32.988Z,6.28
2019-04-27T07:56:21.865Z,6.08
2019-04-27T07:59:04.825Z,7.15
2019-04-27T08:01:49.179Z,9.15
2019-04-27T08:04:40.025Z,7.10
2019-04-27T08:10:02.963Z,7.13
2019-04-27T08:12:49.662Z,9.70
2019-04-27T08:15:25.732Z,7.50
2019-04-27T08:17:53.405Z,8.13
2019-04-27T08:20:36.173Z,7.50
2019-04-27T08:23:15.039Z,7.35
2019-04-27T08:25:58.880Z,10.00
2019-04-27T08:28:28.764Z,23.70
2019-04-27T08:31:42.887Z,9.60
2019-04-27T08:34:34.733Z,10.28
2019-04-27T08:37:11.437Z,10.13
2019-04-27T08:39:47.133Z,7.85
2019-04-27T08:42:29.468Z,10.50
2019-04-27T08:45:05.733Z,14.68
2019-04-27T08:47:49.789Z,7.58
2019-04-27T08:50:26.219Z,11.10
2019-04-27T08:53:09.854Z,7.78
2019-04-27T08:55:45.931Z,9.53
2019-04-27T08:58:32.048Z,9.08
2019-04-27T09:01:10.045Z,8.48
2019-04-27T09:06:22.535Z,8.45
2019-04-27T09:09:16.689Z,7.85
2019-04-27T09:12:09.547Z,8.75
2019-04-27T09:15:07.041Z,8.73
2019-04-27T09:17:59.056Z,9.38
2019-04-27T09:20:53.920Z,9.90
2019-04-27T09:23:30.375Z,10.45
2019-04-27T09:26:12.427Z,9.33
2019-04-27T09:28:49.272Z,9.23
2019-04-27T09:31:31.905Z,8.80
2019-04-27T09:34:00.231Z,10.32
2019-04-27T09:36:42.824Z,8.83
2019-04-27T09:39:31.916Z,10.95
2019-04-27T09:42:14.472Z,8.33
2019-04-27T09:44:51.085Z,11.68
2019-04-27T09:47:32.937Z,12.60
2019-04-27T09:50:09.005Z,8.68
2019-04-27T09:52:51.878Z,9.08
2019-04-27T09:55:28.544Z,9.08
2019-04-27T09:58:10.850Z,4.20
2019-04-27T10:00:49.616Z,4.42
2019-04-27T10:03:32.394Z,6.90
2019-04-27T10:06:09.014Z,5.40
2019-04-27T10:13:48.090Z,9.88
2019-04-27T10:16:25.677Z,7.55
2019-04-27T10:21:36.558Z,7.85
2019-04-27T10:24:26.130Z,7.10
2019-04-27T10:27:08.582Z,5.62
2019-04-27T10:29:46.627Z,7.72
2019-04-27T10:32:28.790Z,5.72
2019-04-27T10:35:05.793Z,12.93
2019-04-27T10:37:49.323Z,8.23
2019-04-27T10:40:26.347Z,8.10
2019-04-27T10:43:09.272Z,14.30
2019-04-27T10:45:46.410Z,9.63
2019-04-27T10:48:29.260Z,9.60
2019-04-27T10:51:07.132Z,8.70
2019-04-27T10:53:49.220Z,6.05
2019-04-27T10:56:27.243Z,8.95
2019-04-27T11:01:31.256Z,7.28
2019-04-27T11:04:25.950Z,10.05
2019-04-27T11:07:05.495Z,10.65
2019-04-27T11:10:07.637Z,11.85
2019-04-27T11:12:47.271Z,11.22
2019-04-27T11:15:31.172Z,8.50
2019-04-27T11:18:06.659Z,11.80
2019-04-27T11:25:54.900Z,9.93
2019-04-27T11:28:31.124Z,11.15
2019-04-27T11:31:13.772Z,14.10
2019-04-27T11:33:49.800Z,14.13
2019-04-27T11:36:57.735Z,17.60
2019-04-27T11:39:26.449Z,10.88
2019-04-27T11:42:14.485Z,8.43
2019-04-27T11:44:41.213Z,11.45
2019-04-27T11:47:32.339Z,7.85
2019-04-27T11:50:14.430Z,11.28
2019-04-27T11:52:50.056Z,7.90
2019-04-27T11:55:32.373Z,9.63
2019-04-27T11:58:08.535Z,14.58
2019-04-27T12:00:36.508Z,10.82
2019-04-27T12:03:11.959Z,14.83
2019-04-27T12:05:47.988Z,11.45
2019-04-27T12:08:32.159Z,9.13
2019-04-27T12:11:07.743Z,13.10
2019-04-27T12:13:49.997Z,12.50
2019-04-27T12:16:27.506Z,10.23
2019-04-27T12:21:38.419Z,5.83
2019-04-27T12:27:07.078Z,8.00
2019-04-27T12:30:26.052Z,6.93
2019-04-27T12:33:09.464Z,4.70
2019-04-27T12:35:48.363Z,5.33
2019-04-27T12:38:19.181Z,7.33
2019-04-27T12:41:02.468Z,9.13
2019-04-27T12:43:45.915Z,5.70
2019-04-27T12:46:21.951Z,5.33
2019-04-27T12:48:49.803Z,9.10
2019-04-27T12:51:25.521Z,6.47
2019-04-27T12:54:12.525Z,6.73
2019-04-27T12:57:28.218Z,6.40
2019-04-27T13:00:20.683Z,7.87
2019-04-27T13:02:57.762Z,4.50
2019-04-27T13:05:33.821Z,4.00
2019-04-27T13:08:17.963Z,5.80
2019-04-27T13:10:55.424Z,4.13
2019-04-27T13:18:33.580Z,4.50
2019-04-27T13:21:21.989Z,12.20
2019-04-27T13:26:36.167Z,3.70
2019-04-27T13:29:19.833Z,6.00
2019-04-27T13:31:55.719Z,5.43
2019-04-27T13:34:39.390Z,5.70
2019-04-27T13:37:37.259Z,4.63
2019-04-27T13:40:21.369Z,4.30
2019-04-27T13:42:58.673Z,4.70
2019-04-27T13:46:11.751Z,3.53
2019-04-27T13:49:17.807Z,6.73
2019-04-27T13:52:16.116Z,9.83
2019-04-27T13:54:53.179Z,9.57
2019-04-27T13:57:39.910Z,9.07
2019-04-27T14:00:06.208Z,6.63
2019-04-27T14:02:48.989Z,9.53
2019-04-27T14:05:38.711Z,12.43
2019-04-27T14:08:21.171Z,19.90
2019-04-27T14:10:58.815Z,11.63
2019-04-27T14:13:41.904Z,10.03
2019-04-27T14:16:19.017Z,8.33
2019-04-27T14:19:02.479Z,6.50
2019-04-27T14:21:39.171Z,8.87
2019-04-27T14:26:49.373Z,8.90
2019-04-27T14:29:35.766Z,7.40
2019-04-27T14:32:11.840Z,8.60
2019-04-27T14:34:53.913Z,4.80
2019-04-27T14:37:21.592Z,4.60
2019-04-27T14:39:57.936Z,5.50
2019-04-27T14:42:35.727Z,10.57
2019-04-27T14:45:14.130Z,7.33
2019-04-27T14:47:49.930Z,8.83
2019-04-27T14:50:32.027Z,9.45
2019-04-27T14:53:08.810Z,5.00
2019-04-27T14:55:51.979Z,6.00
2019-04-27T14:58:28.339Z,5.10
2019-04-27T15:00:56.079Z,6.10
2019-04-27T15:03:40.173Z,8.40
2019-04-27T15:06:16.525Z,9.33
2019-04-27T15:08:59.238Z,9.60
2019-04-27T15:11:35.666Z,8.03
2019-04-27T15:14:20.763Z,11.90
2019-04-27T15:16:49.739Z,9.57
2019-04-27T15:19:39.070Z,5.50
2019-04-27T15:22:12.672Z,9.40
2019-04-27T15:25:06.480Z,12.00
2019-04-27T15:27:23.797Z,6.60
2019-04-27T15:33:02.351Z,11.60
2019-04-27T15:35:51.043Z,8.80
2019-04-27T15:38:30.912Z,6.37
2019-04-27T15:41:30.458Z,9.10
2019-04-27T15:44:05.770Z,8.93
2019-04-27T15:46:49.173Z,5.07
2019-04-27T15:49:28.349Z,7.53
2019-04-27T15:52:11.091Z,12.40
2019-04-27T15:54:48.657Z,15.23
2019-04-27T15:57:31.703Z,10.47
2019-04-27T16:00:20.442Z,13.97
2019-04-27T16:02:54.598Z,17.83
2019-04-27T16:05:37.075Z,10.13
2019-04-27T16:08:15.818Z,10.47
2019-04-27T16:11:01.119Z,6.57
2019-04-27T16:13:38.273Z,9.60
2019-04-27T16:18:50.233Z,10.70
2019-04-27T16:21:32.793Z,8.50
2019-04-27T16:24:12.614Z,9.70
2019-04-27T16:26:56.056Z,8.77
2019-04-27T16:29:31.746Z,7.90
2019-04-27T16:32:13.798Z,10.53
2019-04-27T16:34:59.239Z,10.73
2019-04-27T16:37:52.028Z,16.77
2019-04-27T16:40:34.257Z,7.93
2019-04-27T16:43:16.602Z,6.10
2019-04-27T16:45:52.859Z,10.67
2019-04-27T16:48:36.328Z,9.07
2019-04-27T16:51:12.585Z,6.67
2019-04-27T16:53:54.844Z,13.03
2019-04-27T16:56:30.487Z,13.83
2019-04-27T16:59:36.609Z,8.00
2019-04-27T17:01:51.587Z,6.00
2019-04-27T17:04:19.202Z,7.27
2019-04-27T17:06:55.354Z,10.87
2019-04-27T17:09:31.725Z,7.90
2019-04-27T17:12:01.623Z,7.07
2019-04-27T17:17:47.170Z,25.00
2019-04-27T17:25:15.325Z,8.53
2019-04-27T17:28:04.081Z,10.70
2019-04-27T17:30:50.772Z,14.20
2019-04-27T17:33:34.359Z,9.97
2019-04-27T17:36:19.726Z,12.90
2019-04-27T17:39:02.082Z,17.93
2019-04-27T17:41:42.131Z,10.93
2019-04-27T17:44:23.311Z,9.37
2019-04-27T17:46:59.401Z,18.17
2019-04-27T17:49:42.220Z,15.40
2019-04-27T17:52:18.457Z,14.87
2019-04-27T17:57:30.486Z,19.07
2019-04-27T18:00:12.999Z,10.23
2019-04-27T18:02:42.447Z,14.23
2019-04-27T18:05:25.116Z,10.43
2019-04-27T18:08:01.711Z,10.17
2019-04-27T18:10:44.755Z,10.53
2019-04-27T18:13:13.314Z,13.17
2019-04-27T18:15:55.821Z,36.03
2019-04-27T18:18:31.011Z,13.80
2019-04-27T18:23:45.299Z,21.30
2019-04-27T18:27:02.995Z,14.67
2019-04-27T18:29:34.856Z,31.10
2019-04-27T18:34:35.740Z,10.53
2019-04-27T18:37:24.259Z,18.93
2019-04-27T18:39:58.394Z,18.17
2019-04-27T18:42:41.330Z,13.47
2019-04-27T18:45:18.420Z,20.60
2019-04-27T18:48:13.481Z,9.60
2019-04-27T18:51:13.323Z,13.38
2019-04-27T18:53:59.686Z,14.50
2019-04-27T18:56:33.473Z,11.80
2019-04-27T19:01:43.689Z,7.72
2019-04-27T19:04:28.143Z,11.93
2019-04-27T19:07:03.866Z,9.80
2019-04-27T19:09:49.358Z,13.53
2019-04-27T19:12:24.334Z,15.10
2019-04-27T19:15:08.120Z,19.23
2019-04-27T19:17:44.085Z,13.62
2019-04-27T19:20:26.157Z,32.98
2019-04-27T19:23:01.828Z,9.53
2019-04-27T19:30:47.798Z,28.70
2019-04-27T19:33:15.600Z,20.27
2019-04-27T19:35:58.520Z,52.53
2019-04-27T19:38:34.253Z,15.35
2019-04-27T19:41:18.417Z,18.85
2019-04-27T19:43:55.035Z,14.18
2019-04-27T19:46:37.375Z,17.30
2019-04-27T19:49:16.225Z,13.78
2019-04-27T19:51:58.940Z,9.78
2019-04-27T19:54:34.900Z,14.43
2019-04-27T19:57:31.165Z,13.62
2019-04-27T19:59:48.887Z,10.90
2019-04-27T20:02:32.683Z,12.50
2019-04-27T20:05:22.421Z,13.48
2019-04-27T20:08:05.695Z,12.33
2019-04-27T20:10:43.301Z,15.72
2019-04-27T20:13:26.435Z,15.40
2019-04-27T20:16:03.041Z,10.82
2019-04-27T20:18:46.029Z,18.90
2019-04-27T20:21:22.172Z,34.15
2019-04-27T20:24:04.811Z,33.78
2019-04-27T20:26:42.280Z,23.65
2019-04-27T20:29:33.356Z,20.15
2019-04-27T20:32:11.348Z,17.48
2019-04-27T20:34:53.927Z,17.80
2019-04-27T20:37:31.375Z,19.92
2019-04-27T20:40:15.123Z,12.68
2019-04-27T20:42:43.757Z,22.85
2019-04-27T20:45:27.423Z,10.10
2019-04-27T20:48:02.149Z,30.40
2019-04-27T20:50:46.945Z,25.60
2019-04-27T20:53:21.572Z,16.42
2019-04-27T20:58:31.853Z,13.65
2019-04-27T21:01:21.644Z,10.85
2019-04-27T21:06:56.107Z,15.55
2019-04-27T21:09:38.701Z,20.30
2019-04-27T21:12:22.587Z,16.93
2019-04-27T21:14:59.213Z,17.87
2019-04-27T21:17:42.563Z,18.23
2019-04-27T21:20:19.066Z,19.20
2019-04-27T21:27:46.701Z,27.48
2019-04-27T21:30:31.331Z,29.18
2019-04-27T21:33:16.479Z,23.92
2019-04-27T21:36:01.456Z,31.57
2019-04-27T21:38:37.820Z,19.05
2019-04-27T21:41:05.375Z,24.65
2019-04-27T21:43:42.067Z,17.92
2019-04-27T21:46:17.879Z,15.13
2019-04-27T21:54:19.287Z,17.57
2019-04-27T21:56:55.155Z,16.93
2019-04-27T22:07:04.461Z,20.37
2019-04-27T22:12:05.125Z,15.50
2019-04-27T22:14:48.258Z,14.45
2019-04-27T22:17:24.641Z,20.75
2019-04-27T22:20:07.314Z,28.05
2019-04-27T22:22:47.518Z,20.90
2019-04-27T22:27:58.481Z,17.65
2019-04-27T22:30:34.897Z,15.58
2019-04-27T22:33:17.743Z,24.07
2019-04-27T22:35:53.449Z,19.45
2019-04-27T22:38:36.294Z,15.90
2019-04-27T22:41:52.206Z,12.98
2019-04-27T22:44:37.149Z,15.38
2019-04-27T22:49:48.661Z,16.42
2019-04-27T22:52:31.198Z,16.82
2019-04-27T22:55:11.823Z,16.85
2019-04-27T22:57:58.952Z,22.25
2019-04-27T23:00:52.157Z,15.58
2019-04-27T23:03:38.292Z,19.23
2019-04-27T23:06:17.207Z,14.65
2019-04-27T23:09:01.548Z,16.42
2019-04-27T23:11:38.604Z,20.23
2019-04-27T23:14:13.699Z,18.48
2019-04-27T23:16:51.278Z,14.05
2019-04-27T23:19:34.359Z,18.82
2019-04-27T23:22:11.083Z,15.43
2019-04-27T23:24:55.020Z,16.73
2019-04-27T23:27:31.842Z,24.63
2019-04-27T23:30:15.286Z,21.90
2019-04-27T23:32:58.659Z,10.48
2019-04-27T23:35:34.893Z,15.25
2019-04-27T23:38:20.563Z,13.60
2019-04-27T23:40:56.345Z,13.98
2019-04-27T23:46:07.623Z,18.25
2019-04-27T23:48:53.780Z,20.32
2019-04-27T23:51:42.562Z,20.48
2019-04-27T23:59:10.344Z,15.40
